x

Patapsco, Md (44043) Weather Station

12:50pm - Fri 26th May 2017 All times are EDT. -4 hours from GMT.

  • Wind
    18mph, 25mph gusts
  • Air Temp 70°f
  • Sea Pressure 1006.9mb
  • Patapsco, Md
  • Patapsco, Md

More Historic Weather Station data

Upgrade to MSW Pro to gain access to the past 30 days of data for over 8000 Wavebouys and Weather Stations around the globe.

Join Pro

Comparision Forecast

View Surf forecast
   
Fri 05/26 12:50pm  -   -  18 25 mph 1006.9mb - 70f
12:40pm  -   -  22 27 mph 1006.7mb - 71f
12:30pm  -   -  20 27 mph 1006.8mb - 70f
12:20pm  -   -  18 25 mph 1007mb - 70f
12:10pm  -   -  16 22 mph 1007mb - 69f
12:00pm 1.3ft 2s 18 22 mph 1007mb 65f 69f
11:50am  -   -  16 20 mph 1007mb - 69f
11:40am  -   -  16 22 mph 1007mb - 69f
11:20am  -   -  18 25 mph 1007mb - 69f
11:10am  -   -  18 22 mph 1006.9mb - 69f
11:00am  -   -  18 22 mph 1006.9mb 64f 68f
10:50am  -   -  13 18 mph 1006.9mb - 68f
10:40am  -   -  16 18 mph 1006.9mb - 67f
10:30am  -   -  13 18 mph 1006.8mb - 67f
10:20am  -   -  11 16 mph 1006.7mb - 66f
10:10am  -   -  16 20 mph 1006.6mb - 65f
10:00am  -   -  13 18 mph 1006.6mb 64f 65f
9:50am  -   -  16 18 mph 1006.6mb - 65f
9:40am  -   -  16 20 mph 1006.5mb - 64f
9:30am  -   -  16 18 mph 1006.4mb - 63f
9:20am  -   -  16 18 mph 1006.5mb - 63f
9:10am  -   -  16 18 mph 1006.4mb - 63f
9:00am  -   -  16 18 mph 1006.4mb 64f 62f
8:50am  -   -  16 20 mph 1006.3mb - 62f
8:40am  -   -  16 20 mph 1006.1mb - 62f
8:30am  -   -  13 18 mph 1006mb - 62f
8:20am  -   -  13 18 mph 1006mb - 62f
8:10am  -   -  13 16 mph 1006mb - 62f
8:00am 1ft 2s 16 18 mph 1005.8mb 64f 62f
7:50am  -   -  16 20 mph 1005.7mb - 62f
7:40am  -   -  16 20 mph 1005.6mb - 63f
7:30am  -   -  18 20 mph 1005.4mb - 63f
7:20am  -   -  18 22 mph 1005.2mb - 62f
7:10am  -   -  16 20 mph 1005.1mb - 61f
7:00am 1ft 2s 11 16 mph 1004.9mb 64f 61f
6:50am  -   -  13 16 mph 1004.9mb - 61f
6:40am  -   -  13 16 mph 1004.8mb - 61f
6:30am  -   -  16 16 mph 1004.6mb - 61f
6:20am  -   -  13 18 mph 1004.5mb - 61f
6:10am  -   -  13 18 mph 1004.3mb - 61f
6:00am 1ft 2s 16 20 mph 1003.9mb 65f 61f
5:50am  -   -  18 20 mph 1003.7mb - 61f
5:40am  -   -  16 20 mph 1003.5mb - 61f
5:30am  -   -  16 20 mph 1003.4mb - 61f
5:20am  -   -  16 20 mph 1003.1mb - 61f
5:10am  -   -  16 18 mph 1003mb - 61f
5:00am  -   -  16 18 mph 1002.9mb 65f 60f
4:50am  -   -  16 18 mph 1002.8mb - 60f
4:40am  -   -  16 18 mph 1002.7mb - 60f
4:30am  -   -  16 18 mph 1002.5mb - 60f
4:20am  -   -  13 16 mph 1002.5mb - 60f
4:10am  -   -  13 16 mph 1002.5mb - 60f
4:00am 1ft 2s 13 16 mph 1002.3mb 66f 60f
3:50am  -   -  13 16 mph 1002.1mb - 60f
3:40am  -   -  13 18 mph 1002.1mb - 60f
3:30am  -   -  13 16 mph 1002.1mb - 60f
3:20am  -   -  13 16 mph 1002.1mb - 60f
3:10am  -   -  13 18 mph 1002mb - 61f
3:00am 1ft 2s 13 18 mph 1001.9mb 66f 61f
2:50am  -   -  13 16 mph 1001.7mb - 61f
2:40am  -   -  13 16 mph 1001.6mb - 61f
2:30am  -   -  13 18 mph 1001.5mb - 61f
2:20am  -   -  16 18 mph 1001.3mb - 61f
2:10am  -   -  16 18 mph 1001.3mb - 60f
2:00am 1ft 2s 16 18 mph 1001.2mb 66f 60f
1:50am  -   -  13 16 mph 1001.1mb - 60f
1:40am  -   -  13 16 mph 1001mb - 61f
1:30am  -   -  16 20 mph 1000.8mb - 62f
1:20am  -   -  16 18 mph 1000.7mb - 62f
1:10am  -   -  16 20 mph 1000.6mb - 62f
1:00am 1ft 2s 16 18 mph 1000.5mb 65f 61f
12:50am  -   -  13 16 mph 1000.5mb - 62f
12:40am  -   -  16 18 mph 1000.6mb - 62f
12:30am  -   -  16 20 mph 1000.5mb - 61f
12:20am  -   -  16 20 mph 1000.4mb - 60f
12:10am  -   -  16 20 mph 1000.4mb - 60f
12:00am 1ft 2s 16 20 mph 1000.4mb 65f 60f
Thu 05/25 11:50pm  -   -  18 20 mph 1000.3mb - 60f
11:40pm  -   -  18 20 mph 1000.2mb - 60f
11:30pm  -   -  16 20 mph 1000.1mb - 60f
11:20pm  -   -  13 20 mph 1000mb - 60f
11:10pm  -   -  13 16 mph 999.9mb - 60f
11:00pm  -   -  13 16 mph 999.9mb 66f 60f
10:50pm  -   -  11 13 mph 999.8mb - 60f
10:40pm  -   -  9 11 mph 999.9mb - 60f
10:30pm  -   -  9 11 mph 999.9mb - 60f
10:20pm  -   -  9 11 mph 999.7mb - 60f
10:10pm  -   -  7 9 mph 999.4mb - 60f
10:00pm  -   -  9 9 mph 999.2mb 65f 60f
9:50pm  -   -  7 9 mph 999mb - 60f
9:40pm  -   -  7 7 mph 998.8mb - 60f
9:30pm  -   -  7 9 mph 998.7mb - 61f
9:20pm  -   -  7 9 mph 998.6mb - 61f
9:10pm  -   -  7 9 mph 998.3mb - 60f
9:00pm 1ft 2s 7 9 mph 998.4mb 66f 60f
8:50pm  -   -  9 13 mph 998.7mb - 61f
8:40pm  -   -  13 18 mph 998.7mb - 61f
8:30pm  -   -  11 13 mph 998.7mb - 61f
8:20pm  -   -  13 18 mph 998.5mb - 61f
8:10pm  -   -  13 18 mph 998.6mb - 61f
8:00pm 1ft 2s 22 40 mph 998.2mb 67f 61f
7:50pm  -   -  20 25 mph 998.1mb - 61f
7:40pm  -   -  27
mph
998.7mb - 61f
7:30pm  -   -  25
mph
999.1mb - 61f
7:20pm  -   -  22
mph
998.9mb - 61f
7:10pm  -   -  16 25 mph 998.5mb - 62f
7:00pm 0.3ft  -  16 29 mph 998mb 68f 66f
6:50pm  -   -  16
mph
997.5mb - 68f
6:40pm  -   -  11 27 mph 997.5mb - 68f
6:30pm  -   -  9 16 mph 997.4mb - 68f
6:20pm  -   -  7 11 mph 997.3mb - 68f
6:10pm  -   -  4 7 mph 997.7mb - 68f
6:00pm  -   -  4 7 mph 997.7mb 67f 68f
5:50pm  -   -  4 4 mph 997.8mb - 68f
5:40pm  -   -  2 4 mph 997.8mb - 69f
5:30pm  -   -  4 7 mph 997.7mb - 69f
5:20pm  -   -  9 11 mph 997.6mb - 68f
5:10pm  -   -  9 11 mph 997.6mb - 68f
5:00pm 0.3ft  -  9 11 mph 997.5mb 69f 68f
4:50pm  -   -  9 11 mph 997.4mb - 68f
4:40pm  -   -  9 9 mph 997.4mb - 68f
4:30pm  -   -  9 9 mph 997.6mb - 68f
4:20pm  -   -  9 9 mph 998mb - 68f
4:10pm  -   -  7 9 mph 998.2mb - 67f
4:00pm 0.3ft  -  9 9 mph 998.4mb 68f 67f
3:50pm  -   -  7 9 mph 998.4mb - 67f
3:40pm  -   -  7 7 mph 998.4mb - 67f
3:30pm  -   -  7 9 mph 998.6mb - 67f
3:20pm  -   -  4 9 mph 998.8mb - 68f
3:10pm  -   -  2 4 mph 999mb - 68f
3:00pm 0.3ft  -  4 7 mph 999.1mb 67f 67f
2:50pm  -   -  4 7 mph 999.4mb - 67f
2:40pm  -   -  4 7 mph 999.5mb - 67f
2:30pm  -   -  4 7 mph 999.6mb - 67f
2:20pm  -   -   -  2 mph 999.5mb - 67f
2:10pm  -   -  2 2 mph 999.4mb - 67f
2:00pm  -   -  2 4 mph 999.5mb 66f 68f
1:50pm  -   -  4 7 mph 999.6mb - 67f
1:40pm  -   -  4 7 mph 999.6mb - 67f
1:30pm  -   -  7 9 mph 999.7mb - 67f
1:20pm  -   -  7 9 mph 999.9mb - 66f
1:10pm  -   -  9 11 mph 999.6mb - 66f
1:00pm  -   -  9 13 mph 999.6mb 65f 66f
12:50pm  -   -  11 16 mph 999.7mb - 66f
12:40pm  -   -  11 16 mph 999.7mb - 66f
12:30pm  -   -  11 16 mph 999.7mb - 66f
12:20pm  -   -  11 16 mph 999.6mb - 66f
12:10pm  -   -  4 13 mph 999.5mb - 65f
12:00pm 1ft 2s 2 2 mph 999.6mb 65f 65f
11:50am  -   -  2 4 mph 999.6mb - 65f
11:40am  -   -  2 4 mph 999.5mb - 65f
11:30am  -   -   -  2 mph 999.2mb - 65f
11:20am  -   -  2 4 mph 999.1mb - 64f
11:10am  -   -  4 7 mph 999.1mb - 63f
11:00am 1.3ft 2s 7 9 mph 999mb 64f 63f
10:50am  -   -  9 11 mph 998.9mb - 63f
10:40am  -   -  11 13 mph 998.6mb - 63f
10:30am  -   -  11 13 mph 998.6mb - 63f
10:20am  -   -  9 11 mph 998.6mb - 62f
10:10am  -   -  11 13 mph 998.5mb - 62f
10:00am 2ft 3s 13 16 mph 998.5mb 63f 61f
9:50am  -   -  13 16 mph 998.6mb - 61f
9:40am  -   -  13 16 mph 998.6mb - 61f
9:30am  -   -  16 18 mph 998.6mb - 61f
9:20am  -   -  16 20 mph 998.6mb - 61f
9:10am  -   -  20 25 mph 998.3mb - 61f
9:00am 2.5ft 3s 18 22 mph 998.4mb 64f 61f
8:50am  -   -  20 22 mph 998.5mb - 60f
8:40am  -   -  20 25 mph 998.8mb - 60f
8:30am  -   -  20 25 mph 999.1mb - 60f
8:20am  -   -  18 25 mph 999.5mb - 59f
8:10am  -   -  18 25 mph 999.5mb - 59f
8:00am 2.5ft 3s 18 22 mph 999.5mb 64f 59f
7:50am  -   -  18 20 mph 999.4mb - 59f
7:40am  -   -  20 25 mph 999.4mb - 59f
7:30am  -   -  22 29 mph 999.3mb - 58f
7:20am  -   -  25 29 mph 999.2mb - 58f
7:10am  -   -  25 29 mph 999.3mb - 58f
7:00am 3ft 3s 25 31 mph 999.2mb 64f 58f
6:50am  -   -  25 31 mph 999.3mb - 58f
6:40am  -   -  25 31 mph 999.5mb - 58f
6:30am  -   -  25 29 mph 999.9mb - 58f
6:20am  -   -  25 31 mph 1000.1mb - 58f
6:10am  -   -  25 31 mph 1000.1mb - 58f
6:00am 2.5ft 3s 25 29 mph 1000.1mb 64f 58f
5:50am  -   -  25 29 mph 1000.1mb - 58f
5:40am  -   -  22 27 mph 1000.8mb - 58f
5:30am  -   -  18 22 mph 1001.8mb - 57f
5:20am  -   -  16 22 mph 1001.9mb - 57f
5:10am  -   -  11 16 mph 1002mb - 57f
5:00am 2ft 3s 11 16 mph 1002.1mb 64f 57f
4:50am  -   -  13 20 mph 1002.2mb - 57f
4:40am  -   -  16 20 mph 1002.2mb - 57f
4:30am  -   -  16 22 mph 1002.4mb - 57f
4:20am  -   -  16 20 mph 1002.5mb - 57f
4:10am  -   -  16 20 mph 1002.7mb - 57f
4:00am 2ft 3s 13 18 mph 1002.7mb 64f 57f
3:50am  -   -  11 18 mph 1002.9mb - 57f
3:40am  -   -  11 18 mph 1003.1mb - 57f
3:30am  -   -  13 20 mph 1003mb - 58f
3:20am  -   -  20 25 mph 1002.8mb - 58f
3:10am  -   -  18 25 mph 1002.9mb - 57f
3:00am 1.6ft 3s 18 22 mph 1003.3mb 65f 57f
2:50am  -   -  16 20 mph 1003.6mb - 57f
2:40am  -   -  16 20 mph 1003.6mb - 57f
2:30am  -   -  18 22 mph 1003.8mb - 58f
2:20am  -   -  16 20 mph 1004.1mb - 58f
2:10am  -   -  16 18 mph 1004.5mb - 58f
2:00am 1.6ft 3s 18 22 mph 1004.5mb 65f 58f
1:50am  -   -  18 20 mph 1004.7mb - 58f
1:40am  -   -  16 20 mph 1005mb - 58f
1:30am  -   -  18 20 mph 1005.3mb - 58f
1:20am  -   -  18 20 mph 1005.6mb - 58f
1:10am  -   -  16 20 mph 1005.7mb - 58f
1:00am 2ft 3s 18 22 mph 1006mb 65f 58f
12:50am  -   -  18 22 mph 1005.9mb - 58f
12:40am  -   -  18 22 mph 1006.1mb - 59f
12:30am  -   -  20 25 mph 1006.4mb - 59f
12:20am  -   -  18 20 mph 1006.7mb - 59f
12:10am  -   -  20 22 mph 1006.5mb - 59f
12:00am 2ft 3s 18 22 mph 1006.5mb 65f 59f
Wed 05/24 11:50pm  -   -  18 22 mph 1006.7mb - 59f
11:40pm  -   -  18 25 mph 1006.7mb - 59f
11:30pm  -   -  18 25 mph 1006.8mb - 59f
11:20pm  -   -  20 25 mph 1007mb - 59f
11:10pm  -   -  20 25 mph 1007.3mb - 60f
11:00pm 1.6ft 3s 18 22 mph 1007.2mb 65f 60f
10:50pm  -   -  18 22 mph 1007.3mb - 60f
10:40pm  -   -  18 22 mph 1007.5mb - 60f
10:30pm  -   -  18 22 mph 1007.3mb - 60f
10:20pm  -   -  20 25 mph 1007mb - 60f
10:10pm  -   -  20 22 mph 1007.3mb - 60f
10:00pm 1.6ft 3s 20 25 mph 1007.5mb 65f 60f
9:50pm  -   -  20 25 mph 1007.7mb - 60f
9:40pm  -   -  20 25 mph 1007.7mb - 61f
9:30pm  -   -  20 25 mph 1007.9mb - 61f
9:20pm  -   -  18 22 mph 1007.9mb - 61f
9:10pm  -   -  18 22 mph 1007.8mb - 61f
9:00pm 1.6ft 3s 18 22 mph 1007.8mb 65f 62f
8:50pm  -   -  18 22 mph 1007.8mb - 62f
8:40pm  -   -  18 22 mph 1007.8mb - 62f
8:30pm  -   -  18 22 mph 1007.7mb - 62f
8:20pm  -   -  18 22 mph 1007.6mb - 62f
8:10pm  -   -  16 20 mph 1007.6mb - 63f
8:00pm 1.6ft 3s 18 22 mph 1007.6mb 65f 63f
7:50pm  -   -  18 20 mph 1007.5mb - 63f
7:40pm  -   -  18 20 mph 1007.3mb - 63f
7:30pm  -   -  18 22 mph 1007.3mb - 64f
7:20pm  -   -  18 22 mph 1007.4mb - 64f
7:10pm  -   -  18 20 mph 1007.3mb - 64f
7:00pm  -   -  20 22 mph 1007.1mb 65f 65f
6:50pm  -   -  18 22 mph 1007.1mb - 65f
6:40pm  -   -  18 22 mph 1007.1mb - 65f
6:30pm  -   -  16 18 mph 1006.9mb - 65f
6:20pm  -   -  7 16 mph 1007mb - 65f
6:10pm  -   -  4 4 mph 1007.1mb - 64f
6:00pm 0.3ft  -  2 4 mph 1007.5mb 66f 64f
5:50pm  -   -  2 2 mph 1007.6mb - 64f
5:40pm  -   -  2 2 mph 1007.3mb - 64f
5:30pm  -   -  2 4 mph 1007.1mb - 64f
5:20pm  -   -  2 2 mph 1007.4mb - 64f
5:10pm  -   -  2 2 mph 1007.5mb - 64f
5:00pm 0.7ft  -   -  2 mph 1007.5mb 67f 65f
4:50pm  -   -   -  2 mph 1007.6mb - 65f
4:40pm  -   -   -  2 mph 1007.6mb - 65f
4:30pm  -   -   -  2 mph 1007.7mb - 65f
4:20pm  -   -  2 4 mph 1007.8mb - 64f
4:10pm  -   -  4 7 mph 1008.1mb - 64f
4:00pm 0.3ft  -  2 4 mph 1008.1mb 66f 64f
3:50pm  -   -  2 2 mph 1007.8mb - 64f
3:40pm  -   -   -  2 mph 1007.6mb - 65f
3:30pm  -   -   -  4 mph 1007.5mb - 64f
3:20pm  -   -  2 4 mph 1007.3mb - 64f
3:10pm  -   -   -  2 mph 1007.8mb - 64f
3:00pm 0.3ft  -  2 2 mph 1007.9mb 66f 64f
2:50pm  -   -  4 7 mph 1007.7mb - 63f
2:40pm  -   -  4 7 mph 1007.5mb - 64f
2:30pm  -   -  2 4 mph 1007.9mb - 64f
2:20pm  -   -   -  2 mph 1008.1mb - 64f
2:10pm  -   -   -  2 mph 1008.1mb - 63f
2:00pm 0.7ft  -  4 7 mph - - 63f
1:57pm  -   -  4 7 mph 1007.7mb - 63f
1:40pm  -   -  4 7 mph 1007.7mb - 63f
1:30pm  -   -  4 7 mph 1007.5mb - 62f
1:20pm  -   -  7 9 mph 1007mb - 62f
1:10pm  -   -  7 9 mph 1007.2mb - 62f
1:00pm 0.7ft  -  4 7 mph 1007.8mb 65f 61f
12:50pm  -   -  7 9 mph 1008mb - 62f
12:40pm  -   -  7 7 mph 1008.3mb - 62f
12:30pm  -   -  4 7 mph 1008.2mb - 62f
12:20pm  -   -  4 7 mph 1008mb - 62f
12:10pm  -   -  4 7 mph 1008.2mb - 62f
12:00pm 0.7ft  -  7 9 mph 1008.2mb 65f 62f
11:50am  -   -  7 9 mph 1008.1mb - 62f
11:40am  -   -  7 9 mph 1008mb - 62f
11:30am  -   -  9 11 mph 1007.9mb - 62f
11:20am  -   -  9 11 mph 1007.8mb - 61f
11:10am  -   -  9 11 mph 1007.7mb - 61f
11:00am 1ft 2s 9 11 mph 1007.7mb 65f 61f
10:50am  -   -  9 13 mph 1007.5mb - 61f
10:40am  -   -  11 13 mph 1007.6mb - 61f
10:30am  -   -  11 13 mph 1007.6mb - 61f
10:20am  -   -  11 13 mph 1007.6mb - 61f
10:10am  -   -  11 13 mph 1007.2mb - 61f
10:00am 0.7ft  -  11 13 mph 1007.1mb 65f 61f
9:50am  -   -  7 9 mph 1007.5mb - 61f
9:40am  -   -  7 9 mph 1007.6mb - 60f
9:30am  -   -  9 11 mph 1007.7mb - 60f
9:20am  -   -  7 9 mph 1007.8mb - 60f
9:10am  -   -  9 11 mph 1007.7mb - 60f
9:00am 1ft 2s 9 11 mph 1007.7mb 64f 60f
8:50am  -   -  9 11 mph 1007.7mb - 60f
8:40am  -   -  9 11 mph 1007.8mb - 60f
8:30am  -   -  9 11 mph 1007.6mb - 60f
8:20am  -   -  7 9 mph 1007.8mb - 60f
8:10am  -   -  7 9 mph 1007.8mb - 60f
8:00am 1ft 2s 7 9 mph 1007.7mb 64f 60f
7:50am  -   -  7 11 mph 1007.6mb - 60f
7:40am  -   -  7 11 mph 1007.4mb - 60f
7:30am  -   -  9 13 mph 1007.2mb - 60f
7:20am  -   -  11 13 mph 1007.1mb - 60f
7:10am  -   -  11 13 mph 1006.9mb - 60f
7:00am 1ft 2s 11 13 mph 1006.9mb 64f 60f
6:50am  -   -  11 13 mph 1006.9mb - 60f
6:40am  -   -  11 13 mph 1006.7mb - 60f
6:30am  -   -  11 16 mph 1006.4mb - 59f
6:20am  -   -  11 16 mph 1006.5mb - 59f
6:10am  -   -  11 13 mph 1006.5mb - 59f
6:00am 1ft 2s 11 16 mph 1006.4mb 65f 59f
5:50am  -   -  11 16 mph 1006.4mb - 59f
5:40am  -   -  13 16 mph 1006.3mb - 59f
5:30am  -   -  11 13 mph 1006.3mb - 59f
5:20am  -   -  11 11 mph 1006.4mb - 59f
5:10am  -   -  9 13 mph 1006.5mb - 59f
5:00am 1ft 3s 11 13 mph 1006.5mb 65f 59f
4:50am  -   -  11 13 mph 1006.6mb - 59f
4:40am  -   -  11 16 mph 1006.6mb - 59f
4:30am  -   -  11 13 mph 1006.5mb - 59f
4:20am  -   -  11 13 mph 1006.6mb - 59f
4:10am  -   -  11 13 mph 1006.6mb - 60f
4:00am 1ft 2s 11 13 mph 1006.6mb 65f 59f
3:50am  -   -  9 11 mph 1006.6mb - 59f
3:40am  -   -  11 13 mph 1006.6mb - 59f
3:30am  -   -  11 16 mph 1006.6mb - 59f
3:20am  -   -  11 16 mph 1006.9mb - 60f
3:10am  -   -  11 13 mph 1007mb - 60f
3:00am 1ft 2s 11 16 mph 1007mb 65f 60f
2:50am  -   -  11 16 mph 1007mb - 60f
2:40am  -   -  11 13 mph 1007mb - 60f
2:30am  -   -  13 16 mph 1007mb - 60f
2:20am  -   -  13 16 mph 1007mb - 60f
2:10am  -   -  11 13 mph 1007.3mb - 60f
2:00am 0.7ft  -  9 11 mph 1007.5mb 65f 60f
1:50am  -   -  9 11 mph 1007.7mb - 60f
1:40am  -   -  9 13 mph 1007.6mb - 60f
1:30am  -   -  9 13 mph 1007.6mb - 61f
1:20am  -   -  9 11 mph 1007.8mb - 61f
1:10am  -   -  9 11 mph 1007.9mb - 61f
1:00am  -   -  9 11 mph 1007.9mb 65f 61f
12:50am  -   -  11 13 mph 1008mb - 61f
12:40am  -   -  11 13 mph 1007.9mb - 61f
12:30am  -   -  11 13 mph 1007.8mb - 61f
12:20am  -   -  9 13 mph 1007.7mb - 61f
12:10am  -   -  11 13 mph 1007.7mb - 61f
12:00am  -   -  9 11 mph 1008.2mb 65f 61f
Tue 05/23 11:50pm  -   -  11 13 mph 1007.9mb - 61f
11:40pm  -   -  11 13 mph 1008mb - 61f
11:30pm  -   -  11 16 mph 1008.2mb - 62f
11:20pm  -   -  11 13 mph 1008.3mb - 62f
11:10pm  -   -  11 13 mph 1008.6mb - 62f
11:00pm  -   -  13 16 mph 1008.2mb 65f 62f
10:50pm  -   -  11 16 mph 1008.5mb - 62f
10:40pm  -   -  11 13 mph 1008.6mb - 62f
10:30pm  -   -  11 13 mph 1008.7mb - 62f
10:20pm  -   -  9 13 mph 1009mb - 62f
10:10pm  -   -  9 11 mph 1009.1mb - 62f
10:00pm  -   -  9 9 mph 1009.1mb 65f 62f
9:50pm  -   -  9 11 mph 1009.2mb - 63f
9:40pm  -   -  9 9 mph 1009.2mb - 63f
9:30pm  -   -  7 9 mph 1009.5mb - 63f
9:20pm  -   -  7 9 mph 1009.6mb - 63f
9:10pm  -   -  9 11 mph 1009.7mb - 63f
9:00pm  -   -  9 11 mph 1009.9mb 65f 63f
8:50pm  -   -  9 9 mph 1010.1mb - 63f
8:40pm  -   -  9 9 mph 1010.1mb - 64f
8:30pm  -   -  9 9 mph 1010.1mb - 64f
8:20pm  -   -  7 9 mph 1010.1mb - 64f
8:10pm  -   -  2 4 mph 1010.2mb - 64f
8:00pm 0.3ft  -  2 4 mph 1010.2mb 65f 64f
7:50pm  -   -  2 4 mph 1010.2mb - 64f
7:40pm  -   -  2 4 mph 1010.2mb - 64f
7:30pm  -   -  2 4 mph 1010.2mb - 64f
7:20pm  -   -  2 4 mph 1010.2mb - 64f
7:10pm  -   -  2 4 mph 1010.3mb - 64f
7:00pm 0.3ft  -  2 4 mph 1010.3mb 65f 64f
6:50pm  -   -  2 2 mph 1010.4mb - 64f
6:40pm  -   -  2 2 mph 1010.5mb - 64f
6:30pm  -   -  2 2 mph 1010.5mb - 64f
6:20pm  -   -   -  2 mph 1010.4mb - 64f
6:10pm  -   -   -  2 mph 1010.5mb - 64f
6:00pm 0.3ft  -  2 2 mph 1010.5mb 65f 64f
5:50pm  -   -  2 2 mph 1010.5mb - 64f
5:40pm  -   -  2 2 mph 1010.6mb - 64f
5:30pm  -   -  2 2 mph 1010.8mb - 64f
5:20pm  -   -  2 2 mph 1010.9mb - 64f
5:10pm  -   -  2 2 mph 1011mb - 64f
5:00pm  -   -  2 2 mph 1011.2mb 65f 64f
4:50pm  -   -  2 2 mph 1011.3mb - 64f
4:40pm  -   -  2 2 mph 1011.4mb - 64f
4:30pm  -   -  2 2 mph 1011.5mb - 64f
4:20pm  -   -  2 2 mph 1011.6mb - 64f
4:10pm  -   -  2 4 mph 1011.7mb - 64f
4:00pm  -   -  2 4 mph 1011.9mb 65f 64f
3:50pm  -   -  2 4 mph 1012.1mb - 64f
3:40pm  -   -  2 4 mph 1012.3mb - 64f
3:30pm  -   -  4 4 mph 1012.4mb - 64f
3:20pm  -   -  4 7 mph 1012.4mb - 64f
3:10pm  -   -  7 9 mph 1012.6mb - 64f
3:00pm 0.3ft  -  7 9 mph 1012.7mb 65f 64f
2:50pm  -   -  11 13 mph 1012.7mb - 64f
2:40pm  -   -  9 13 mph 1012.8mb - 64f
2:30pm  -   -  7 9 mph 1012.8mb - 64f
2:20pm  -   -  7 9 mph 1012.9mb - 64f
2:10pm  -   -  7 9 mph 1013.1mb - 64f
2:00pm 0.3ft  -  7 7 mph 1013.5mb 65f 64f
1:50pm  -   -  7 7 mph 1013.5mb - 64f
1:40pm  -   -  7 9 mph 1013.5mb - 64f
1:30pm  -   -  7 9 mph 1013.5mb - 64f
1:20pm  -   -  7 9 mph 1013.6mb - 64f
1:10pm  -   -  7 9 mph 1013.8mb - 63f
1:00pm 0.7ft  -  7 7 mph 1014mb 65f 64f
12:50pm  -   -  7 9 mph 1014.1mb - 63f
12:40pm  -   -  4 7 mph 1014.3mb - 63f
12:30pm  -   -  4 7 mph 1014.5mb - 63f
12:20pm  -   -  4 7 mph 1014.6mb - 63f
12:10pm  -   -  7 7 mph 1014.7mb - 63f
12:00pm 1ft 2s 4 7 mph 1014.8mb 65f 62f
11:50am  -   -  7 9 mph 1014.8mb - 62f
11:40am  -   -  7 11 mph 1014.8mb - 62f
11:30am  -   -  9 9 mph 1014.7mb - 62f
11:20am  -   -  9 11 mph 1014.8mb - 62f
11:10am  -   -  9 11 mph 1014.8mb - 62f
11:00am 1ft 2s 9 11 mph 1015mb 65f 62f
10:50am  -   -  9 11 mph 1015.2mb - 62f
10:40am  -   -  11 13 mph 1015.3mb - 62f
10:30am  -   -  11 13 mph 1015.3mb - 62f
10:20am  -   -  11 13 mph 1015.2mb - 62f
10:10am  -   -  11 13 mph 1015mb - 62f
10:00am 1.3ft 2s 11 13 mph 1015.1mb 65f 62f
9:50am  -   -  11 16 mph 1015.1mb - 62f
9:40am  -   -  11 16 mph 1015.2mb - 62f
9:30am  -   -  11 13 mph 1015.2mb - 62f
9:20am  -   -  13 18 mph 1014.8mb - 62f
9:10am  -   -  13 18 mph 1014.7mb - 62f
9:00am 1.3ft 2s 13 18 mph 1014.6mb 65f 62f
8:50am  -   -  13 16 mph 1014.6mb - 62f
8:40am  -   -  13 16 mph 1014.8mb - 62f
8:30am  -   -  13 16 mph 1014.7mb - 62f
8:20am  -   -  13 16 mph 1014.6mb - 62f
8:10am  -   -  13 16 mph 1014.8mb - 62f
8:00am 1ft 2s 13 13 mph 1014.7mb 65f 62f
7:50am  -   -  13 16 mph 1014.5mb - 62f
7:40am  -   -  13 18 mph 1014.4mb - 62f
7:30am  -   -  13 16 mph 1014.5mb - 62f
7:20am  -   -  13 16 mph 1014.4mb - 62f
7:10am  -   -  16 18 mph 1014.3mb - 62f
7:00am 0.7ft  -  13 18 mph 1014.6mb 65f 62f
6:50am  -   -  11 13 mph 1014.8mb - 62f
6:40am  -   -  11 13 mph 1014.8mb - 63f
6:30am  -   -  11 13 mph 1014.8mb - 63f
6:20am  -   -  9 11 mph 1014.8mb - 63f
6:10am  -   -  7 9 mph 1014.8mb - 62f
6:00am  -   -  7 9 mph 1014.6mb 64f 62f
5:50am  -   -  9 11 mph 1014.6mb - 63f
5:40am  -   -  9 11 mph 1014.5mb - 63f
5:30am  -   -  9 11 mph 1014.5mb - 63f
5:20am  -   -  7 9 mph 1014.4mb - 63f
5:10am  -   -  7 9 mph 1014.3mb - 62f
5:00am  -   -  9 11 mph 1014.1mb 65f 62f
4:50am  -   -  7 11 mph 1014.3mb - 61f
4:40am  -   -  7 7 mph 1014.4mb - 62f
4:30am  -   -  7 9 mph 1014.5mb - 62f
4:20am  -   -  7 9 mph 1014.5mb - 62f
4:10am  -   -  7 7 mph 1014.5mb - 62f
4:00am  -   -  7 9 mph 1014.5mb 65f 62f
3:50am  -   -  9 9 mph 1014.4mb - 62f
3:40am  -   -  9 11 mph 1014.2mb - 62f
3:30am  -   -  9 11 mph 1014.2mb - 62f
3:20am  -   -  9 11 mph 1014.2mb - 63f
3:10am  -   -  9 11 mph 1014.1mb - 63f
3:00am  -   -  9 9 mph 1014mb 65f 64f
2:50am  -   -  4 7 mph 1014.2mb - 64f
2:40am  -   -  4 4 mph 1014.3mb - 64f
2:30am  -   -  4 4 mph 1014.3mb - 64f
2:20am  -   -  4 7 mph 1014.3mb - 64f
2:10am  -   -  4 7 mph 1014.3mb - 64f
2:00am  -   -  4 7 mph 1014.4mb 65f 64f
1:50am  -   -  4 7 mph 1014.5mb - 64f
1:40am  -   -  4 4 mph 1014.6mb - 64f
1:30am  -   -  4 4 mph 1014.8mb - 64f
1:20am  -   -  4 4 mph 1014.9mb - 64f
1:10am  -   -  4 4 mph 1015mb - 64f
1:00am  -   -  7 7 mph 1015.2mb 65f 64f
12:50am  -   -  7 9 mph 1015.2mb - 64f
12:40am  -   -  7 7 mph 1015.5mb - 64f
12:30am  -   -  4 7 mph 1015.8mb - 64f
12:20am  -   -  4 4 mph 1015.8mb - 64f
12:10am  -   -  4 4 mph 1015.8mb - 64f
12:00am  -   -  2 4 mph 1015.6mb 66f 64f
Mon 05/22 11:50pm  -   -  4 7 mph 1015.6mb - 64f
11:40pm  -   -  4 7 mph 1015.5mb - 64f
11:30pm  -   -  4 7 mph 1015.3mb - 64f
11:20pm  -   -  4 7 mph 1015.5mb - 64f
11:10pm  -   -  4 4 mph 1015.8mb - 64f
11:00pm  -   -  4 7 mph 1015.9mb 66f 64f
10:50pm  -   -  4 7 mph 1015.8mb - 64f
10:40pm  -   -  4 7 mph 1016mb - 64f
10:30pm  -   -  4 7 mph 1016mb - 64f
10:20pm  -   -  4 4 mph 1015.7mb - 64f
10:10pm  -   -  4 7 mph 1015.3mb - 64f
10:00pm  -   -  2 4 mph 1015.6mb 65f 64f
9:50pm  -   -   -  2 mph 1015.8mb - 64f
9:40pm  -   -  2 2 mph 1015.7mb - 64f
9:30pm  -   -  2 4 mph 1015.5mb - 64f
9:20pm  -   -   -  2 mph 1015.7mb - 64f
9:10pm  -   -   -  2 mph 1015.8mb - 64f
9:00pm  -   -  2 4 mph 1015.7mb 66f 64f
8:50pm  -   -  2 4 mph 1015.5mb - 64f
8:40pm  -   -  2 4 mph 1015.5mb - 64f
8:30pm  -   -  4 4 mph 1015.6mb - 64f
8:20pm  -   -  2 4 mph 1015.6mb - 64f
8:10pm  -   -  2 4 mph 1015.5mb - 64f
8:00pm  -   -  2 2 mph 1015.5mb 66f 64f
7:50pm  -   -  2 2 mph 1015.4mb - 64f
7:40pm  -   -  2 4 mph 1015.3mb - 64f
7:30pm  -   -  2 2 mph 1015.3mb - 64f
7:20pm  -   -  2 4 mph 1015.3mb - 64f
7:10pm  -   -  2 4 mph 1015.2mb - 64f
7:00pm  -   -  2 4 mph 1015.3mb 66f 64f
6:50pm  -   -   -  2 mph 1015.3mb - 64f
6:40pm  -   -   -  0 mph 1015.3mb - 64f
6:30pm  -   -   -  2 mph 1015.2mb - 64f
6:20pm  -   -   -  2 mph 1015.3mb - 64f
6:10pm  -   -   -  0 mph 1015.4mb - 64f
6:00pm  -   -  2 4 mph 1015.3mb 66f 64f
5:50pm  -   -  4 4 mph 1015.4mb - 64f